Time;durP1;ratioP1;P1;durP2;ratioP2;P2;SDS_P1;SDS_P2;PMS_P1;PMS_P2;Temp;Humidity;BMP_temperature;BMP_pressure;BME280_temperature;BME280_humidity;BME280_pressure;Samples;Min_cycle;Max_cycle;Signal;HPM_P1;HPM_P2
2022/05/28 00:00:53;;;;;;;3.35;3.05;;;15.70;99.90;;;;;;5010476;28;20211;-59
2022/05/28 00:03:20;;;;;;;3.80;3.40;;;15.70;99.90;;;;;;5012387;28;20182;-58
2022/05/28 00:05:47;;;;;;;6.28;3.33;;;15.60;99.90;;;;;;5012247;28;20183;-59
2022/05/28 00:08:12;;;;;;;7.00;3.67;;;15.50;99.90;;;;;;5011003;28;20254;-59
2022/05/28 00:10:39;;;;;;;5.70;4.17;;;15.90;99.90;;;;;;5011402;28;20217;-59
2022/05/28 00:13:05;;;;;;;3.95;3.60;;;15.40;99.90;;;;;;5011865;28;20222;-58
2022/05/28 00:15:30;;;;;;;3.43;3.13;;;15.40;99.90;;;;;;5010616;28;20219;-58
2022/05/28 00:17:57;;;;;;;6.17;4.50;;;15.10;99.90;;;;;;5010033;28;20889;-58
2022/05/28 00:20:23;;;;;;;4.38;3.50;;;15.30;99.90;;;;;;5010320;28;20190;-58
2022/05/28 00:22:49;;;;;;;5.10;3.77;;;15.30;99.90;;;;;;5011997;28;20190;-58
2022/05/28 00:25:16;;;;;;;7.73;4.60;;;15.20;99.90;;;;;;5011475;28;20186;-58
2022/05/28 00:27:42;;;;;;;4.30;3.90;;;15.20;99.90;;;;;;5010161;28;20217;-58
2022/05/28 00:30:10;;;;;;;4.90;3.57;;;15.10;99.90;;;;;;5010645;28;20210;-58
2022/05/28 00:32:36;;;;;;;6.93;4.25;;;15.20;99.90;;;;;;5011602;28;20225;-58
2022/05/28 00:35:03;;;;;;;6.00;4.03;;;15.10;99.90;;;;;;5012109;28;20175;-59
2022/05/28 00:37:28;;;;;;;7.45;3.92;;;15.00;99.90;;;;;;5010509;28;20491;-59
2022/05/28 00:39:54;;;;;;;6.00;4.30;;;14.80;99.90;;;;;;5009406;28;20210;-58
2022/05/28 00:42:20;;;;;;;6.37;4.83;;;14.60;99.90;;;;;;5010692;28;20214;-58
2022/05/28 00:44:45;;;;;;;7.53;5.03;;;14.70;99.90;;;;;;5010489;28;20191;-58
2022/05/28 00:47:12;;;;;;;6.33;4.40;;;14.50;99.90;;;;;;5010327;28;20797;-59
2022/05/28 00:49:37;;;;;;;8.73;5.40;;;14.60;99.90;;;;;;5009996;28;20218;-58
2022/05/28 00:52:07;;;;;;;6.10;5.20;;;14.40;99.90;;;;;;5011236;28;20695;-58
2022/05/28 00:54:40;;;;;;;5.97;4.32;;;14.30;99.90;;;;;;5010724;28;20294;-58
2022/05/28 00:57:07;;;;;;;7.70;4.38;;;14.40;99.90;;;;;;5009387;28;20675;-58
2022/05/28 00:59:33;;;;;;;7.85;5.93;;;14.40;99.90;;;;;;5008788;28;20728;-58
2022/05/28 01:02:07;;;;;;;6.03;5.35;;;14.40;99.90;;;;;;5008209;28;20282;-58
2022/05/28 01:05:05;;;;;;;5.35;4.80;;;14.50;99.90;;;;;;5008773;28;20268;-58
2022/05/28 01:08:00;;;;;;;6.38;4.93;;;14.40;99.90;;;;;;5020244;28;20195;-58
2022/05/28 01:10:39;;;;;;;4.93;4.53;;;14.50;99.90;;;;;;5006628;28;20241;-58
2022/05/28 01:13:36;;;;;;;7.30;4.70;;;14.50;99.90;;;;;;5010732;28;20197;-59
2022/05/28 01:16:09;;;;;;;5.55;4.50;;;14.70;99.90;;;;;;5019060;28;20202;-59
2022/05/28 01:18:44;;;;;;;7.60;5.05;;;14.40;99.90;;;;;;5009739;28;20209;-59
2022/05/28 01:21:42;;;;;;;6.20;4.53;;;14.50;99.90;;;;;;5007318;28;20185;-58
2022/05/28 01:24:14;;;;;;;10.38;4.40;;;14.40;99.90;;;;;;5010624;28;20181;-58
2022/05/28 01:27:03;;;;;;;5.18;3.50;;;14.20;99.90;;;;;;5008751;28;20222;-58
2022/05/28 01:29:34;;;;;;;8.27;4.50;;;14.10;99.90;;;;;;5010789;28;20630;-63
2022/05/28 01:32:01;;;;;;;6.13;4.40;;;14.10;99.90;;;;;;5010195;28;20276;-58
2022/05/28 01:34:30;;;;;;;6.07;4.60;;;14.20;99.90;;;;;;5017344;28;20183;-58
2022/05/28 01:36:57;;;;;;;7.05;4.15;;;14.20;99.90;;;;;;5010160;28;20186;-58
2022/05/28 01:39:24;;;;;;;8.07;4.20;;;14.20;99.90;;;;;;5009248;28;20590;-58
2022/05/28 01:41:51;;;;;;;6.03;5.40;;;14.30;99.90;;;;;;5010542;28;20186;-58
2022/05/28 01:44:17;;;;;;;7.25;4.43;;;14.20;99.90;;;;;;5010872;28;20187;-57
2022/05/28 01:46:45;;;;;;;4.22;3.80;;;14.00;99.90;;;;;;5010606;28;20194;-58
2022/05/28 01:49:14;;;;;;;6.32;4.00;;;14.10;99.90;;;;;;5011406;28;20680;-58
2022/05/28 01:51:44;;;;;;;10.18;4.80;;;14.30;99.90;;;;;;5009224;28;20222;-57
2022/05/28 01:54:14;;;;;;;5.22;3.50;;;13.90;99.90;;;;;;5009959;28;20185;-57
2022/05/28 01:56:46;;;;;;;4.85;3.50;;;14.20;99.90;;;;;;5007802;28;20202;-58
2022/05/28 01:59:15;;;;;;;6.35;3.30;;;14.20;99.90;;;;;;5007851;28;20219;-57
2022/05/28 02:01:41;;;;;;;4.95;3.50;;;14.00;99.90;;;;;;5008883;28;20270;-58
2022/05/28 02:04:08;;;;;;;5.57;3.60;;;14.00;99.90;;;;;;5010394;28;20655;-58
2022/05/28 02:06:36;;;;;;;6.60;3.05;;;14.00;99.90;;;;;;5010417;28;20261;-58
2022/05/28 02:09:05;;;;;;;6.18;3.20;;;13.90;99.90;;;;;;5009370;28;20215;-58
2022/05/28 02:11:48;;;;;;;5.13;3.08;;;14.00;99.90;;;;;;5009089;28;20182;-58
2022/05/28 02:14:21;;;;;;;7.88;3.42;;;13.70;99.90;;;;;;5010677;28;20265;-58
2022/05/28 02:16:56;;;;;;;6.55;3.00;;;13.90;99.90;;;;;;5008580;28;20191;-58
2022/05/28 02:19:43;;;;;;;5.55;3.70;;;13.90;99.90;;;;;;5008931;28;20710;-58
2022/05/28 02:22:24;;;;;;;5.70;3.20;;;13.90;99.90;;;;;;5008991;28;20228;-58
2022/05/28 02:24:55;;;;;;;5.15;2.70;;;13.90;99.90;;;;;;5009326;28;20205;-58
2022/05/28 02:27:22;;;;;;;4.53;3.10;;;13.80;99.90;;;;;;5010821;28;20197;-58
2022/05/28 02:29:48;;;;;;;7.68;3.50;;;13.70;99.90;;;;;;5008604;28;20225;-58
2022/05/28 02:32:22;;;;;;;7.37;3.47;;;13.80;99.90;;;;;;5008374;28;20509;-58
2022/05/28 02:34:50;;;;;;;8.85;3.10;;;13.70;99.90;;;;;;5012342;28;20175;-58
2022/05/28 02:37:25;;;;;;;4.15;2.85;;;13.80;99.70;;;;;;5013539;28;20182;-58
2022/05/28 02:39:51;;;;;;;3.22;2.30;;;13.40;99.90;;;;;;5011864;28;20240;-58
2022/05/28 02:42:16;;;;;;;5.82;2.90;;;13.80;99.90;;;;;;5013174;28;20290;-58
2022/05/28 02:44:42;;;;;;;4.27;2.67;;;13.30;99.90;;;;;;5013200;28;20728;-58
2022/05/28 02:47:08;;;;;;;11.33;3.40;;;13.40;99.90;;;;;;5012658;28;20187;-58
2022/05/28 02:49:33;;;;;;;4.77;2.47;;;13.20;99.90;;;;;;5014220;28;20582;-58
2022/05/28 02:52:04;;;;;;;3.80;2.20;;;13.30;99.90;;;;;;5006731;28;20657;-58
2022/05/28 02:54:30;;;;;;;3.95;2.25;;;13.00;99.90;;;;;;5008967;28;20197;-58
2022/05/28 02:56:56;;;;;;;8.38;3.30;;;13.20;99.80;;;;;;5012820;28;20205;-57
2022/05/28 02:59:22;;;;;;;5.30;2.60;;;13.30;99.90;;;;;;5011458;28;20810;-57
2022/05/28 03:01:48;;;;;;;4.90;3.00;;;12.90;99.90;;;;;;5011230;28;20187;-58
2022/05/28 03:04:13;;;;;;;4.50;2.80;;;13.30;99.90;;;;;;5013367;28;20441;-57
2022/05/28 03:06:39;;;;;;;8.40;2.40;;;13.30;99.90;;;;;;5028742;28;20198;-58
2022/05/28 03:09:06;;;;;;;6.23;2.37;;;13.20;99.90;;;;;;5013281;28;20223;-58
2022/05/28 03:11:33;;;;;;;5.50;2.60;;;12.90;99.90;;;;;;5012906;28;20187;-58
2022/05/28 03:13:58;;;;;;;5.85;3.05;;;12.80;99.80;;;;;;5010745;28;20183;-58
2022/05/28 03:16:24;;;;;;;7.87;2.20;;;12.80;99.90;;;;;;5011655;28;20198;-58
2022/05/28 03:18:49;;;;;;;5.40;3.00;;;12.80;98.70;;;;;;5012234;28;20218;-58
2022/05/28 03:21:15;;;;;;;4.03;2.30;;;12.90;99.20;;;;;;5011750;28;20276;-58
2022/05/28 03:23:41;;;;;;;3.97;2.57;;;12.70;99.60;;;;;;5013192;28;20225;-57
2022/05/28 03:26:17;;;;;;;5.97;2.55;;;12.90;99.40;;;;;;5012027;28;20193;-58
2022/05/28 03:28:43;;;;;;;6.47;2.45;;;12.80;99.50;;;;;;5012024;28;20209;-58
2022/05/28 03:31:09;;;;;;;5.03;2.70;;;12.60;99.60;;;;;;5012047;28;20269;-58
2022/05/28 03:33:35;;;;;;;5.07;2.17;;;12.60;99.50;;;;;;5012334;28;20274;-58
2022/05/28 03:36:00;;;;;;;7.03;2.63;;;12.60;99.10;;;;;;5012120;28;20209;-58
2022/05/28 03:38:26;;;;;;;6.80;2.87;;;12.80;99.40;;;;;;5009444;28;20215;-58
2022/05/28 03:40:51;;;;;;;3.60;2.20;;;12.60;99.00;;;;;;5010680;28;20187;-57
2022/05/28 03:43:17;;;;;;;4.93;2.27;;;12.30;99.70;;;;;;5012884;28;20907;-57
2022/05/28 03:45:43;;;;;;;5.00;2.20;;;12.60;99.10;;;;;;5011339;28;20908;-58
2022/05/28 03:48:10;;;;;;;4.20;2.23;;;12.40;99.00;;;;;;5012997;28;20691;-58
2022/05/28 03:50:36;;;;;;;4.55;2.83;;;12.50;99.00;;;;;;5012539;28;20199;-58
2022/05/28 03:53:02;;;;;;;6.30;2.10;;;12.20;99.20;;;;;;5007737;28;20182;-58
2022/05/28 03:55:28;;;;;;;4.88;2.50;;;12.50;99.10;;;;;;5007768;28;20186;-57
2022/05/28 03:57:53;;;;;;;5.93;2.83;;;12.50;99.20;;;;;;5009174;28;20691;-57
2022/05/28 04:00:20;;;;;;;4.70;2.67;;;12.30;99.90;;;;;;5007296;28;20187;-58
2022/05/28 04:02:46;;;;;;;6.28;2.35;;;12.40;99.90;;;;;;5012009;28;20197;-57
2022/05/28 04:05:12;;;;;;;4.93;2.43;;;12.40;99.90;;;;;;5012391;28;20222;-61
2022/05/28 04:07:38;;;;;;;6.55;2.38;;;12.30;99.90;;;;;;5011249;28;20437;-58
2022/05/28 04:10:05;;;;;;;5.80;3.03;;;12.50;99.90;;;;;;5009996;28;20647;-58
2022/05/28 04:12:31;;;;;;;4.05;2.70;;;12.40;99.90;;;;;;5006583;28;20311;-58
2022/05/28 04:14:57;;;;;;;5.18;2.85;;;12.40;99.90;;;;;;5010421;28;20202;-58
2022/05/28 04:17:23;;;;;;;7.63;2.80;;;12.50;99.90;;;;;;5008985;28;20682;-58
2022/05/28 04:19:48;;;;;;;8.93;3.20;;;12.40;99.90;;;;;;5007795;28;20209;-58
2022/05/28 04:22:14;;;;;;;4.60;2.37;;;12.50;99.90;;;;;;5011127;28;21191;-58
2022/05/28 04:24:39;;;;;;;3.80;2.37;;;12.50;99.90;;;;;;5011809;28;20210;-58
2022/05/28 04:27:05;;;;;;;4.43;2.87;;;12.30;99.90;;;;;;5011423;28;20285;-59
2022/05/28 04:29:31;;;;;;;4.30;2.73;;;12.30;99.90;;;;;;5010157;28;20261;-58
2022/05/28 04:31:57;;;;;;;4.50;2.43;;;12.30;99.90;;;;;;5009768;28;20467;-58
2022/05/28 04:34:22;;;;;;;4.40;2.10;;;12.20;99.90;;;;;;5009729;28;20182;-58
2022/05/28 04:36:48;;;;;;;6.80;2.10;;;12.30;99.90;;;;;;5010696;28;20668;-58
2022/05/28 04:39:13;;;;;;;7.00;2.33;;;12.30;99.90;;;;;;5012061;28;20695;-58
2022/05/28 04:41:39;;;;;;;7.17;2.70;;;12.20;99.90;;;;;;5015709;28;20187;-58
2022/05/28 04:44:05;;;;;;;6.70;2.47;;;12.10;99.90;;;;;;5013954;28;20229;-58
2022/05/28 04:46:30;;;;;;;4.57;2.20;;;12.10;99.90;;;;;;5012360;28;20182;-57
2022/05/28 04:48:56;;;;;;;5.33;2.37;;;12.40;99.90;;;;;;5009273;28;20222;-58
2022/05/28 04:51:22;;;;;;;4.27;2.03;;;12.30;99.90;;;;;;5010036;28;20201;-58
2022/05/28 04:53:47;;;;;;;5.20;2.60;;;12.40;99.90;;;;;;5009903;28;20263;-58
2022/05/28 04:56:14;;;;;;;5.40;2.60;;;12.10;99.90;;;;;;5008564;28;20303;-58
2022/05/28 04:58:43;;;;;;;4.35;2.45;;;12.20;98.60;;;;;;5004883;28;21278;-58
2022/05/28 05:01:13;;;;;;;7.38;2.80;;;12.20;98.30;;;;;;5008223;28;20277;-58
2022/05/28 05:03:39;;;;;;;6.18;1.98;;;11.70;99.10;;;;;;5008322;28;20726;-58
2022/05/28 05:06:04;;;;;;;4.93;2.30;;;12.20;99.70;;;;;;5025521;28;20220;-58
2022/05/28 05:08:30;;;;;;;3.83;1.80;;;12.50;98.80;;;;;;5010586;28;20225;-58
2022/05/28 05:10:56;;;;;;;7.57;3.30;;;12.50;98.40;;;;;;5009965;28;20655;-58
2022/05/28 05:13:22;;;;;;;6.75;2.05;;;12.60;98.40;;;;;;5007811;28;20712;-58
2022/05/28 05:15:47;;;;;;;6.03;2.67;;;12.80;98.20;;;;;;5007724;28;20186;-58
2022/05/28 05:18:13;;;;;;;7.53;2.33;;;12.80;97.70;;;;;;5008901;28;20253;-60
2022/05/28 05:20:38;;;;;;;3.70;2.33;;;13.20;97.40;;;;;;5009839;28;20201;-60
2022/05/28 05:23:04;;;;;;;6.10;3.20;;;12.90;96.60;;;;;;5011124;28;20179;-60
2022/05/28 05:25:31;;;;;;;3.87;2.10;;;13.10;96.60;;;;;;5005270;28;20659;-60
2022/05/28 05:27:57;;;;;;;8.30;3.20;;;13.00;96.50;;;;;;5009923;28;20275;-56
2022/05/28 05:30:22;;;;;;;3.50;2.30;;;12.90;97.40;;;;;;5005238;28;20257;-56
2022/05/28 05:32:48;;;;;;;5.23;3.40;;;12.90;97.30;;;;;;5010277;28;20545;-57
2022/05/28 05:35:13;;;;;;;5.93;2.57;;;13.10;96.90;;;;;;5002809;28;20183;-57
2022/05/28 05:37:39;;;;;;;3.23;2.20;;;13.00;96.00;;;;;;5006780;28;20191;-56
2022/05/28 05:40:05;;;;;;;5.67;2.77;;;13.10;96.50;;;;;;5008930;28;20202;-57
2022/05/28 05:42:31;;;;;;;7.80;3.35;;;13.20;96.70;;;;;;5007049;28;20266;-56
2022/05/28 05:44:57;;;;;;;4.55;2.38;;;13.30;96.30;;;;;;5009621;28;20481;-57
2022/05/28 05:47:23;;;;;;;7.43;3.10;;;13.50;96.30;;;;;;5007890;28;20175;-58
2022/05/28 05:49:50;;;;;;;7.23;2.83;;;13.60;95.80;;;;;;5010230;28;20233;-57
2022/05/28 05:52:16;;;;;;;4.90;2.13;;;13.50;95.40;;;;;;5008067;28;20187;-56
2022/05/28 05:54:41;;;;;;;6.13;2.27;;;13.40;95.00;;;;;;5008855;28;20275;-55
2022/05/28 05:57:07;;;;;;;5.87;3.00;;;13.70;95.00;;;;;;5001875;28;20445;-56
2022/05/28 05:59:32;;;;;;;4.60;1.80;;;13.80;94.60;;;;;;5009151;28;20269;-56
2022/05/28 06:01:58;;;;;;;4.30;2.87;;;13.70;94.80;;;;;;5009247;28;20187;-56
2022/05/28 06:04:23;;;;;;;6.60;2.30;;;13.80;95.50;;;;;;5009487;28;20252;-56
2022/05/28 06:06:49;;;;;;;5.67;2.50;;;13.80;94.80;;;;;;5008009;28;20187;-54
2022/05/28 06:09:15;;;;;;;6.97;2.67;;;14.00;94.50;;;;;;5009843;28;20329;-55
2022/05/28 06:11:41;;;;;;;6.00;2.30;;;13.90;94.40;;;;;;5010349;28;20179;-57
2022/05/28 06:14:07;;;;;;;6.50;2.07;;;13.80;94.20;;;;;;5007713;28;21041;-58
2022/05/28 06:16:33;;;;;;;4.03;2.10;;;14.00;94.30;;;;;;5005239;28;20270;-57
2022/05/28 06:18:58;;;;;;;6.40;3.03;;;14.20;93.50;;;;;;5009559;28;20210;-58
2022/05/28 06:21:25;;;;;;;4.30;2.20;;;14.20;93.00;;;;;;5008369;28;20445;-58
2022/05/28 06:23:51;;;;;;;7.80;2.88;;;14.20;92.80;;;;;;5008359;28;20187;-57
2022/05/28 06:26:17;;;;;;;4.35;1.98;;;14.30;92.80;;;;;;5004687;28;20252;-58
2022/05/28 06:28:43;;;;;;;4.90;1.60;;;14.30;92.10;;;;;;5004969;28;20273;-58
2022/05/28 06:31:10;;;;;;;7.90;2.20;;;14.50;90.80;;;;;;5008786;28;20249;-56
2022/05/28 06:33:38;;;;;;;5.05;2.25;;;14.30;91.20;;;;;;5005376;28;20191;-55
2022/05/28 06:36:05;;;;;;;2.45;1.48;;;14.60;91.30;;;;;;5008375;28;20183;-57
2022/05/28 06:38:31;;;;;;;4.55;2.22;;;14.40;90.80;;;;;;5007002;28;20234;-58
2022/05/28 06:40:57;;;;;;;2.40;1.50;;;14.50;89.80;;;;;;5009182;28;20261;-57
2022/05/28 06:43:23;;;;;;;4.03;1.80;;;14.80;88.10;;;;;;5006053;28;20215;-56
2022/05/28 06:45:49;;;;;;;5.57;1.60;;;15.20;87.40;;;;;;5008282;28;20433;-57
2022/05/28 06:48:15;;;;;;;3.07;1.53;;;16.00;84.70;;;;;;5006035;28;20473;-59
2022/05/28 06:53:25;;;;;;;2.53;1.70;;;15.70;80.60;;;;;;5008047;28;20456;-57
2022/05/28 06:55:51;;;;;;;6.45;2.10;;;15.70;81.30;;;;;;5006516;28;20590;-58
2022/05/28 06:58:17;;;;;;;2.63;1.57;;;15.70;81.10;;;;;;5007846;28;20203;-58
2022/05/28 07:00:43;;;;;;;5.47;1.92;;;15.60;80.90;;;;;;5004932;28;20870;-59
2022/05/28 07:03:17;;;;;;;2.07;1.50;;;16.10;81.70;;;;;;5006034;28;20187;-55
2022/05/28 07:05:43;;;;;;;2.85;1.48;;;18.20;77.00;;;;;;5006078;28;20249;-55
2022/05/28 07:08:09;;;;;;;8.40;1.80;;;19.70;69.60;;;;;;5003324;28;20218;-61
2022/05/28 07:10:38;;;;;;;5.33;1.97;;;21.10;64.90;;;;;;5001654;28;20465;-60
2022/05/28 07:13:04;;;;;;;2.80;1.30;;;22.50;60.30;;;;;;5010893;28;20460;-60
2022/05/28 07:15:30;;;;;;;3.13;1.30;;;23.80;56.20;;;;;;5004862;28;20951;-60
2022/05/28 07:17:55;;;;;;;5.17;3.27;;;25.20;51.90;;;;;;5003610;28;20519;-66
2022/05/28 07:20:21;;;;;;;4.73;1.53;;;25.20;49.80;;;;;;5010676;28;20186;-67
2022/05/28 07:22:47;;;;;;;4.40;1.20;;;26.10;47.80;;;;;;5012307;28;20229;-67
2022/05/28 07:25:12;;;;;;;2.90;1.60;;;26.70;47.00;;;;;;5010114;28;20658;-66
2022/05/28 07:27:38;;;;;;;4.13;1.60;;;26.80;44.80;;;;;;5007038;28;20660;-67
2022/05/28 07:30:05;;;;;;;2.13;1.30;;;28.20;44.30;;;;;;5008149;28;20214;-70
2022/05/28 07:32:30;;;;;;;5.03;1.57;;;27.60;41.60;;;;;;5006883;28;20197;-65
2022/05/28 07:34:57;;;;;;;3.30;1.87;;;27.90;41.80;;;;;;5011203;28;20445;-63
2022/05/28 07:37:29;;;;;;;3.00;1.80;;;30.00;40.20;;;;;;5009034;28;20179;-61
2022/05/28 07:39:54;;;;;;;4.70;1.97;;;30.90;38.80;;;;;;5012368;28;20500;-61
2022/05/28 07:42:20;;;;;;;4.30;1.37;;;31.50;37.60;;;;;;5010416;28;20471;-68
2022/05/28 07:44:46;;;;;;;4.60;1.40;;;31.10;36.50;;;;;;5011446;28;20193;-71
2022/05/28 07:47:11;;;;;;;5.43;2.37;;;31.70;35.20;;;;;;5027146;28;20203;-63
2022/05/28 07:49:38;;;;;;;3.30;1.80;;;31.80;35.00;;;;;;5011178;28;20240;-68
2022/05/28 07:52:04;;;;;;;1.80;1.50;;;31.30;34.60;;;;;;5011310;28;20268;-69
2022/05/28 07:54:30;;;;;;;2.50;1.63;;;30.80;34.90;;;;;;5006812;28;20453;-67
2022/05/28 07:56:56;;;;;;;4.13;1.63;;;29.80;34.60;;;;;;5010962;28;20457;-67
2022/05/28 07:59:22;;;;;;;2.03;1.30;;;27.30;37.20;;;;;;5009957;28;20204;-71
2022/05/28 08:01:48;;;;;;;3.57;1.70;;;26.40;38.80;;;;;;5011771;28;20521;-71
2022/05/28 08:04:14;;;;;;;2.20;1.20;;;27.00;39.90;;;;;;5008299;28;20539;-62
2022/05/28 08:06:40;;;;;;;3.53;1.73;;;28.30;37.60;;;;;;5010317;28;20185;-65
2022/05/28 08:09:07;;;;;;;2.50;1.27;;;29.10;36.10;;;;;;5009626;28;20212;-68
2022/05/28 08:11:33;;;;;;;3.00;1.90;;;29.40;35.50;;;;;;5009824;28;20449;-68
2022/05/28 08:13:59;;;;;;;3.47;1.47;;;28.40;35.20;;;;;;5008763;28;20915;-67
2022/05/28 08:16:24;;;;;;;3.43;1.33;;;26.50;37.90;;;;;;5009235;28;20700;-64
2022/05/28 08:18:50;;;;;;;3.43;1.60;;;26.50;38.20;;;;;;5009322;28;20273;-68
2022/05/28 08:24:01;;;;;;;2.60;2.10;;;26.40;38.30;;;;;;5006522;28;20448;-65
2022/05/28 08:26:27;;;;;;;3.70;1.40;;;25.90;37.80;;;;;;5005493;28;20450;-73
2022/05/28 08:28:54;;;;;;;2.63;1.60;;;26.20;39.00;;;;;;5003851;28;20251;-68
2022/05/28 08:31:20;;;;;;;1.50;1.10;;;26.70;39.10;;;;;;5004673;28;20187;-70
2022/05/28 08:33:46;;;;;;;1.97;1.30;;;26.70;38.60;;;;;;5012028;28;20847;-69
2022/05/28 08:36:13;;;;;;;4.47;1.60;;;25.90;39.50;;;;;;5005165;28;20430;-69
2022/05/28 08:38:42;;;;;;;2.67;1.20;;;26.50;39.50;;;;;;5007130;28;20465;-66
2022/05/28 08:41:12;;;;;;;3.80;1.57;;;26.70;37.90;;;;;;5002927;28;20453;-67
2022/05/28 08:43:43;;;;;;;2.70;1.60;;;26.60;38.80;;;;;;5006040;28;20439;-61
2022/05/28 08:46:12;;;;;;;3.67;1.23;;;25.90;40.30;;;;;;5009527;28;20441;-65
2022/05/28 08:48:45;;;;;;;2.37;1.50;;;24.70;41.00;;;;;;5009142;28;20824;-69
2022/05/28 08:51:49;;;;;;;6.43;1.80;;;24.00;42.10;;;;;;5008791;28;20504;-67
2022/05/28 08:54:39;;;;;;;3.37;1.50;;;23.20;43.30;;;;;;5003261;28;20842;-68
2022/05/28 08:57:17;;;;;;;5.67;1.50;;;21.80;45.70;;;;;;5006014;28;20794;-61
2022/05/28 08:59:52;;;;;;;2.53;1.40;;;22.30;46.70;;;;;;5007026;28;20852;-61
2022/05/28 09:02:39;;;;;;;2.90;1.10;;;23.10;45.50;;;;;;5007722;28;20481;-62
2022/05/28 09:05:27;;;;;;;2.50;1.30;;;26.00;42.10;;;;;;5003833;28;20788;-62
2022/05/28 09:07:57;;;;;;;3.20;1.53;;;27.70;39.60;;;;;;5005623;28;21938;-62
2022/05/28 09:10:23;;;;;;;4.30;1.20;;;26.50;40.10;;;;;;5009294;28;20505;-62
2022/05/28 09:12:58;;;;;;;4.33;3.20;;;27.60;38.90;;;;;;5008809;28;20835;-62
2022/05/28 09:15:24;;;;;;;1.90;1.20;;;27.30;39.70;;;;;;5007048;28;20192;-62
2022/05/28 09:17:54;;;;;;;3.63;1.27;;;29.00;37.40;;;;;;5009646;28;20433;-61
2022/05/28 09:20:27;;;;;;;2.07;1.20;;;29.10;36.30;;;;;;5008893;28;20265;-64
2022/05/28 09:22:52;;;;;;;1.63;1.53;;;29.80;36.30;;;;;;5009752;28;20449;-61
2022/05/28 09:25:22;;;;;;;4.47;1.23;;;30.90;35.30;;;;;;5008411;28;20810;-61
2022/05/28 09:27:47;;;;;;;2.80;1.30;;;30.30;34.50;;;;;;5014151;28;20175;-62
2022/05/28 09:30:38;;;;;;;1.50;1.37;;;29.80;34.80;;;;;;5009373;28;20836;-61
2022/05/28 09:33:31;;;;;;;3.43;1.20;;;28.40;36.40;;;;;;5003774;28;20215;-61
2022/05/28 09:36:26;;;;;;;1.73;1.20;;;27.80;37.00;;;;;;5005488;28;20532;-61
2022/05/28 09:39:12;;;;;;;6.37;1.70;;;27.10;37.60;;;;;;5010407;28;20457;-61
2022/05/28 09:42:02;;;;;;;5.50;1.47;;;25.80;39.60;;;;;;5006792;28;20448;-60
2022/05/28 09:44:55;;;;;;;2.50;1.40;;;24.50;41.60;;;;;;5021022;28;20443;-61
2022/05/28 09:47:21;;;;;;;1.97;1.17;;;24.40;42.60;;;;;;5007438;28;20832;-63
2022/05/28 09:49:49;;;;;;;2.77;1.70;;;24.60;42.10;;;;;;5009235;28;20483;-62
2022/05/28 09:52:31;;;;;;;3.70;1.47;;;25.20;42.70;;;;;;5008247;28;20192;-62
2022/05/28 09:55:17;;;;;;;5.27;3.77;;;25.00;42.30;;;;;;5004203;28;20444;-65
2022/05/28 09:57:52;;;;;;;2.27;1.20;;;25.80;40.50;;;;;;5005357;28;20559;-65
2022/05/28 10:00:21;;;;;;;2.70;1.30;;;26.20;39.10;;;;;;5008949;28;20920;-63
2022/05/28 10:05:55;;;;;;;2.47;1.30;;;25.70;40.70;;;;;;5007919;28;20488;-63
2022/05/28 10:08:28;;;;;;;2.77;1.60;;;26.30;39.40;;;;;;5008046;28;20824;-64
2022/05/28 10:10:56;;;;;;;4.30;1.80;;;26.50;39.20;;;;;;5007595;28;20842;-62
2022/05/28 10:13:25;;;;;;;2.00;1.43;;;26.00;39.00;;;;;;5006445;28;20520;-61
2022/05/28 10:16:01;;;;;;;2.77;1.77;;;25.00;39.50;;;;;;5007284;28;20481;-61
2022/05/28 10:18:58;;;;;;;1.97;1.20;;;24.10;39.80;;;;;;5008893;28;20460;-61
2022/05/28 10:21:28;;;;;;;2.73;1.37;;;23.00;42.60;;;;;;5008258;28;20488;-61
2022/05/28 10:23:59;;;;;;;2.13;1.60;;;22.40;43.80;;;;;;5008744;28;20447;-62
2022/05/28 10:26:30;;;;;;;1.42;1.20;;;22.10;45.70;;;;;;5008004;28;20484;-62
2022/05/28 10:29:23;;;;;;;4.40;1.80;;;21.90;45.90;;;;;;5005517;28;20224;-61
2022/05/28 10:31:50;;;;;;;2.28;1.55;;;21.90;44.00;;;;;;5005900;28;20217;-63
2022/05/28 10:34:28;;;;;;;7.68;1.80;;;21.50;44.60;;;;;;5009098;28;20179;-64
2022/05/28 10:37:06;;;;;;;3.17;2.30;;;21.30;46.00;;;;;;5005331;28;20197;-63
2022/05/28 10:39:31;;;;;;;4.00;1.30;;;21.30;47.40;;;;;;5005298;28;20468;-64
2022/05/28 10:41:57;;;;;;;3.13;1.80;;;20.70;48.20;;;;;;5023288;28;20183;-62
2022/05/28 10:44:24;;;;;;;4.27;1.43;;;19.70;49.50;;;;;;5006686;28;20195;-63
2022/05/28 10:46:58;;;;;;;3.08;1.77;;;19.30;50.50;;;;;;5008659;28;20191;-63
2022/05/28 10:49:38;;;;;;;3.40;1.80;;;19.30;51.20;;;;;;5006994;28;20214;-65
2022/05/28 10:52:23;;;;;;;2.72;1.60;;;19.10;51.50;;;;;;5005390;28;20187;-62
2022/05/28 10:55:04;;;;;;;2.63;1.50;;;19.20;52.30;;;;;;5009587;28;20217;-63
2022/05/28 10:57:54;;;;;;;2.78;1.30;;;19.00;53.50;;;;;;5011726;28;20201;-62
2022/05/28 11:00:52;;;;;;;3.20;1.90;;;19.20;53.50;;;;;;5005555;28;20528;-62
2022/05/28 11:03:22;;;;;;;3.88;1.40;;;19.10;51.80;;;;;;5006702;28;20202;-62
2022/05/28 11:06:05;;;;;;;2.70;1.65;;;19.60;51.70;;;;;;5009991;28;20183;-62
2022/05/28 11:08:52;;;;;;;3.72;1.42;;;19.90;50.80;;;;;;5010727;28;20214;-62
2022/05/28 11:11:46;;;;;;;4.50;1.60;;;20.90;48.70;;;;;;5010183;28;20174;-66
2022/05/28 11:14:11;;;;;;;3.50;1.43;;;21.90;46.40;;;;;;5012268;28;20206;-62
2022/05/28 11:17:01;;;;;;;7.20;5.00;;;22.20;46.30;;;;;;5021705;28;20962;-63
2022/05/28 11:19:48;;;;;;;2.07;1.87;;;23.00;45.90;;;;;;5006754;28;20761;-62
2022/05/28 11:22:37;;;;;;;2.83;1.40;;;22.90;44.40;;;;;;5013229;28;20434;-63
2022/05/28 11:25:23;;;;;;;2.80;1.67;;;22.80;44.40;;;;;;5029489;28;20522;-64
2022/05/28 11:28:26;;;;;;;2.70;1.40;;;22.90;44.90;;;;;;5009930;28;20429;-62
2022/05/28 11:30:56;;;;;;;3.50;1.50;;;22.80;45.50;;;;;;5008387;28;20445;-64
2022/05/28 11:33:34;;;;;;;4.10;1.90;;;22.70;44.80;;;;;;5012751;28;20430;-62
2022/05/28 11:36:13;;;;;;;4.50;1.47;;;23.20;45.20;;;;;;5011272;28;20472;-65
2022/05/28 11:38:48;;;;;;;5.57;1.20;;;23.40;43.30;;;;;;5011484;28;20543;-63
2022/05/28 11:41:43;;;;;;;3.30;1.70;;;23.00;41.30;;;;;;5016304;28;20496;-62
2022/05/28 11:44:17;;;;;;;2.95;1.70;;;22.60;41.30;;;;;;5011170;28;20429;-62
2022/05/28 11:46:48;;;;;;;3.13;1.67;;;21.40;43.30;;;;;;5010506;28;20196;-62
2022/05/28 11:52:53;;;;;;;1.88;1.58;;;21.40;45.10;;;;;;5009531;28;20237;-63
2022/05/28 11:55:25;;;;;;;2.65;1.50;;;21.30;45.30;;;;;;5022044;28;20185;-63
2022/05/28 11:58:19;;;;;;;2.85;1.45;;;21.00;44.80;;;;;;5013350;28;20201;-63
2022/05/28 12:00:52;;;;;;;2.85;1.80;;;20.60;45.70;;;;;;5009296;28;20179;-63
2022/05/28 12:03:27;;;;;;;3.28;1.80;;;20.40;46.40;;;;;;5008249;28;20171;-62
2022/05/28 12:06:15;;;;;;;5.07;2.00;;;20.70;47.50;;;;;;5006582;28;20182;-64
2022/05/28 12:08:47;;;;;;;1.40;1.20;;;20.70;46.10;;;;;;5008423;28;20214;-63
2022/05/28 12:11:39;;;;;;;2.95;1.50;;;20.80;45.30;;;;;;5008720;28;20265;-62
2022/05/28 12:14:26;;;;;;;2.28;1.30;;;20.70;44.70;;;;;;5009247;28;20186;-62
2022/05/28 12:17:07;;;;;;;2.42;1.30;;;19.80;44.70;;;;;;5009237;28;20183;-64
2022/05/28 12:19:33;;;;;;;2.05;1.17;;;20.40;46.00;;;;;;5003737;28;20301;-62
2022/05/28 12:22:28;;;;;;;3.30;1.80;;;20.60;45.90;;;;;;5006487;28;20260;-63
2022/05/28 12:25:07;;;;;;;1.92;1.33;;;20.60;45.90;;;;;;5009341;28;20668;-63
2022/05/28 12:28:08;;;;;;;4.50;1.73;;;20.70;46.20;;;;;;5008766;28;20604;-63
2022/05/28 12:30:41;;;;;;;2.17;1.45;;;20.20;46.80;;;;;;5006917;28;20191;-64
2022/05/28 12:33:23;;;;;;;2.95;1.60;;;20.20;47.20;;;;;;5008591;28;20226;-62
2022/05/28 12:35:56;;;;;;;3.35;1.92;;;19.90;47.70;;;;;;5010499;28;20377;-64
2022/05/28 12:38:49;;;;;;;2.10;1.40;;;19.90;48.70;;;;;;5005196;28;20225;-63
2022/05/28 12:41:30;;;;;;;2.58;1.80;;;20.10;48.20;;;;;;5008570;28;20257;-63
2022/05/28 12:44:08;;;;;;;4.80;3.42;;;20.00;48.20;;;;;;5011534;28;20661;-62
2022/05/28 12:46:34;;;;;;;3.17;2.22;;;19.90;48.70;;;;;;5003044;28;20210;-63
2022/05/28 12:49:24;;;;;;;2.03;1.50;;;20.00;49.10;;;;;;5010608;28;20692;-66
2022/05/28 12:52:28;;;;;;;3.67;1.60;;;20.20;49.30;;;;;;5020660;28;20179;-64
2022/05/28 12:55:17;;;;;;;3.20;1.52;;;20.10;48.40;;;;;;5007329;28;20175;-66
2022/05/28 12:57:55;;;;;;;1.90;1.60;;;20.20;49.50;;;;;;5006625;28;20569;-64
2022/05/28 13:00:30;;;;;;;4.80;2.00;;;20.00;49.50;;;;;;5007037;28;20233;-63
2022/05/28 13:02:58;;;;;;;3.20;1.50;;;20.00;50.20;;;;;;5009365;28;20331;-64
2022/05/28 13:05:35;;;;;;;3.53;1.85;;;20.00;50.40;;;;;;5007761;28;20187;-64
2022/05/28 13:08:09;;;;;;;3.35;1.75;;;20.20;49.80;;;;;;5010195;28;20226;-64
2022/05/28 13:10:35;;;;;;;2.53;1.20;;;20.50;50.10;;;;;;5005272;28;20183;-66
2022/05/28 13:13:19;;;;;;;4.60;1.57;;;20.40;49.50;;;;;;5009780;28;20187;-64
2022/05/28 13:16:17;;;;;;;2.25;1.45;;;20.40;49.70;;;;;;5006467;28;20230;-64
2022/05/28 13:19:21;;;;;;;2.40;1.25;;;20.30;50.20;;;;;;5008696;28;20290;-63